sensor_id;sensor_type;location;lat;lon;timestamp;P1;durP1;ratioP1;P2;durP2;ratioP2
75837;SDS011;64480;52.040;113.502;2023-05-29T00:43:49;3.25;;;2.17;;
75837;SDS011;64480;52.040;113.502;2023-05-29T00:47:35;75.22;;;5.93;;
75837;SDS011;64480;52.040;113.502;2023-05-29T00:50:39;6.88;;;2.83;;
75837;SDS011;64480;52.040;113.502;2023-05-29T00:53:57;14.05;;;3.97;;
75837;SDS011;64480;52.040;113.502;2023-05-29T00:57:01;10.50;;;3.10;;
75837;SDS011;64480;52.040;113.502;2023-05-29T01:00:33;10.73;;;2.38;;
75837;SDS011;64480;52.040;113.502;2023-05-29T01:03:55;128.85;;;23.52;;
75837;SDS011;64480;52.040;113.502;2023-05-29T01:07:00;52.55;;;11.38;;
75837;SDS011;64480;52.040;113.502;2023-05-29T01:10:19;47.25;;;9.68;;
75837;SDS011;64480;52.040;113.502;2023-05-29T01:13:25;6.90;;;2.65;;
75837;SDS011;64480;52.040;113.502;2023-05-29T01:16:38;16.88;;;4.90;;
75837;SDS011;64480;52.040;113.502;2023-05-29T01:20:07;10.88;;;4.32;;
75837;SDS011;64480;52.040;113.502;2023-05-29T01:23:17;11.35;;;4.93;;
75837;SDS011;64480;52.040;113.502;2023-05-29T01:26:41;10.50;;;5.80;;
75837;SDS011;64480;52.040;113.502;2023-05-29T01:30:14;9.82;;;2.78;;
75837;SDS011;64480;52.040;113.502;2023-05-29T01:33:51;10.02;;;2.78;;
75837;SDS011;64480;52.040;113.502;2023-05-29T01:37:04;7.72;;;3.08;;
75837;SDS011;64480;52.040;113.502;2023-05-29T01:40:08;9.38;;;2.70;;
75837;SDS011;64480;52.040;113.502;2023-05-29T01:43:12;15.10;;;2.88;;
75837;SDS011;64480;52.040;113.502;2023-05-29T01:49:50;6.32;;;2.30;;
75837;SDS011;64480;52.040;113.502;2023-05-29T01:53:12;4.40;;;2.28;;
75837;SDS011;64480;52.040;113.502;2023-05-29T01:56:28;13.80;;;4.28;;
75837;SDS011;64480;52.040;113.502;2023-05-29T01:59:33;16.92;;;6.43;;
75837;SDS011;64480;52.040;113.502;2023-05-29T02:02:38;6.55;;;2.63;;
75837;SDS011;64480;52.040;113.502;2023-05-29T02:05:43;3.90;;;2.22;;
75837;SDS011;64480;52.040;113.502;2023-05-29T02:08:47;9.27;;;2.28;;
75837;SDS011;64480;52.040;113.502;2023-05-29T02:12:10;5.13;;;2.13;;
75837;SDS011;64480;52.040;113.502;2023-05-29T02:15:14;11.95;;;2.58;;
75837;SDS011;64480;52.040;113.502;2023-05-29T02:18:18;4.20;;;2.30;;
75837;SDS011;64480;52.040;113.502;2023-05-29T02:21:21;11.30;;;2.92;;
75837;SDS011;64480;52.040;113.502;2023-05-29T02:24:25;5.28;;;2.22;;
75837;SDS011;64480;52.040;113.502;2023-05-29T02:27:29;6.57;;;2.33;;
75837;SDS011;64480;52.040;113.502;2023-05-29T02:30:35;7.18;;;2.45;;
75837;SDS011;64480;52.040;113.502;2023-05-29T02:33:39;5.70;;;2.20;;
75837;SDS011;64480;52.040;113.502;2023-05-29T02:36:44;7.93;;;4.38;;
75837;SDS011;64480;52.040;113.502;2023-05-29T02:40:01;10.57;;;3.70;;
75837;SDS011;64480;52.040;113.502;2023-05-29T02:43:05;8.77;;;2.50;;
75837;SDS011;64480;52.040;113.502;2023-05-29T02:46:43;6.15;;;2.92;;
75837;SDS011;64480;52.040;113.502;2023-05-29T02:49:52;6.78;;;2.60;;
75837;SDS011;64480;52.040;113.502;2023-05-29T02:53:15;4.20;;;1.92;;
75837;SDS011;64480;52.040;113.502;2023-05-29T02:56:19;2.08;;;1.42;;
75837;SDS011;64480;52.040;113.502;2023-05-29T02:59:31;7.30;;;2.38;;
75837;SDS011;64480;52.040;113.502;2023-05-29T03:03:09;10.32;;;2.08;;
75837;SDS011;64480;52.040;113.502;2023-05-29T03:06:32;8.38;;;5.63;;
75837;SDS011;64480;52.040;113.502;2023-05-29T03:09:37;6.55;;;2.50;;
75837;SDS011;64480;52.040;113.502;2023-05-29T03:12:57;4.40;;;1.60;;
75837;SDS011;64480;52.040;113.502;2023-05-29T03:16:01;8.15;;;2.40;;
75837;SDS011;64480;52.040;113.502;2023-05-29T03:22:50;5.70;;;2.33;;
75837;SDS011;64480;52.040;113.502;2023-05-29T03:29:32;5.15;;;2.30;;
75837;SDS011;64480;52.040;113.502;2023-05-29T03:36:49;5.90;;;1.90;;
75837;SDS011;64480;52.040;113.502;2023-05-29T03:43:37;3.47;;;1.48;;
75837;SDS011;64480;52.040;113.502;2023-05-29T03:47:20;5.45;;;2.67;;
75837;SDS011;64480;52.040;113.502;2023-05-29T03:50:29;2.05;;;1.30;;
75837;SDS011;64480;52.040;113.502;2023-05-29T03:54:11;3.78;;;2.17;;
75837;SDS011;64480;52.040;113.502;2023-05-29T03:57:23;9.75;;;3.42;;
75837;SDS011;64480;52.040;113.502;2023-05-29T04:00:47;7.22;;;2.42;;
75837;SDS011;64480;52.040;113.502;2023-05-29T04:08:29;4.05;;;2.20;;
75837;SDS011;64480;52.040;113.502;2023-05-29T04:11:33;10.20;;;2.60;;
75837;SDS011;64480;52.040;113.502;2023-05-29T04:22:13;3.40;;;2.28;;
75837;SDS011;64480;52.040;113.502;2023-05-29T04:25:18;4.05;;;1.80;;
75837;SDS011;64480;52.040;113.502;2023-05-29T04:28:26;4.15;;;2.30;;
75837;SDS011;64480;52.040;113.502;2023-05-29T04:31:51;6.47;;;2.30;;
75837;SDS011;64480;52.040;113.502;2023-05-29T04:35:12;6.38;;;2.42;;
75837;SDS011;64480;52.040;113.502;2023-05-29T04:38:32;9.45;;;2.40;;
75837;SDS011;64480;52.040;113.502;2023-05-29T04:41:57;8.77;;;4.10;;
75837;SDS011;64480;52.040;113.502;2023-05-29T04:45:30;7.70;;;1.85;;
75837;SDS011;64480;52.040;113.502;2023-05-29T04:49:08;3.63;;;1.38;;
75837;SDS011;64480;52.040;113.502;2023-05-29T04:52:12;4.05;;;2.20;;
75837;SDS011;64480;52.040;113.502;2023-05-29T04:55:39;8.30;;;2.60;;
75837;SDS011;64480;52.040;113.502;2023-05-29T04:58:43;3.78;;;2.30;;
75837;SDS011;64480;52.040;113.502;2023-05-29T05:02:01;7.03;;;2.45;;
75837;SDS011;64480;52.040;113.502;2023-05-29T05:05:05;11.85;;;2.38;;
75837;SDS011;64480;52.040;113.502;2023-05-29T05:08:12;6.55;;;2.40;;
75837;SDS011;64480;52.040;113.502;2023-05-29T05:11:23;8.07;;;1.60;;
75837;SDS011;64480;52.040;113.502;2023-05-29T05:14:33;5.18;;;2.58;;
75837;SDS011;64480;52.040;113.502;2023-05-29T05:17:39;5.70;;;2.00;;
75837;SDS011;64480;52.040;113.502;2023-05-29T05:20:49;5.72;;;2.83;;
75837;SDS011;64480;52.040;113.502;2023-05-29T05:23:53;12.73;;;3.55;;
75837;SDS011;64480;52.040;113.502;2023-05-29T05:27:01;7.53;;;3.00;;
75837;SDS011;64480;52.040;113.502;2023-05-29T05:30:09;3.92;;;1.90;;
75837;SDS011;64480;52.040;113.502;2023-05-29T05:33:54;2.53;;;1.58;;
75837;SDS011;64480;52.040;113.502;2023-05-29T05:40:32;4.90;;;2.30;;
75837;SDS011;64480;52.040;113.502;2023-05-29T05:59:37;12.82;;;6.60;;
75837;SDS011;64480;52.040;113.502;2023-05-29T06:42:33;5.15;;;1.98;;
75837;SDS011;64480;52.040;113.502;2023-05-29T07:07:58;7.07;;;2.60;;
75837;SDS011;64480;52.040;113.502;2023-05-29T07:11:05;13.57;;;4.40;;
75837;SDS011;64480;52.040;113.502;2023-05-29T07:22:25;5.05;;;2.03;;
75837;SDS011;64480;52.040;113.502;2023-05-29T07:28:41;6.70;;;1.92;;
75837;SDS011;64480;52.040;113.502;2023-05-29T07:31:51;3.80;;;1.80;;
75837;SDS011;64480;52.040;113.502;2023-05-29T07:34:57;7.43;;;2.50;;
75837;SDS011;64480;52.040;113.502;2023-05-29T07:38:45;6.57;;;2.25;;
75837;SDS011;64480;52.040;113.502;2023-05-29T07:42:03;3.88;;;1.88;;
75837;SDS011;64480;52.040;113.502;2023-05-29T07:45:13;9.10;;;2.65;;
75837;SDS011;64480;52.040;113.502;2023-05-29T07:52:04;6.03;;;2.97;;
75837;SDS011;64480;52.040;113.502;2023-05-29T07:55:20;9.35;;;2.28;;
75837;SDS011;64480;52.040;113.502;2023-05-29T07:58:27;4.80;;;2.40;;
75837;SDS011;64480;52.040;113.502;2023-05-29T08:01:31;18.80;;;3.70;;
75837;SDS011;64480;52.040;113.502;2023-05-29T08:04:40;9.13;;;2.85;;
75837;SDS011;64480;52.040;113.502;2023-05-29T08:08:05;3.42;;;1.40;;
75837;SDS011;64480;52.040;113.502;2023-05-29T08:11:16;11.95;;;3.95;;
75837;SDS011;64480;52.040;113.502;2023-05-29T08:14:24;3.05;;;1.42;;
75837;SDS011;64480;52.040;113.502;2023-05-29T08:20:38;5.43;;;1.90;;
75837;SDS011;64480;52.040;113.502;2023-05-29T08:27:15;10.85;;;2.47;;
75837;SDS011;64480;52.040;113.502;2023-05-29T08:37:07;6.65;;;2.55;;
75837;SDS011;64480;52.040;113.502;2023-05-29T08:40:26;6.75;;;2.05;;
75837;SDS011;64480;52.040;113.502;2023-05-29T09:43:57;7.20;;;2.30;;
75837;SDS011;64480;52.040;113.502;2023-05-29T09:47:54;6.25;;;2.40;;
75837;SDS011;64480;52.040;113.502;2023-05-29T09:51:07;5.88;;;2.20;;
75837;SDS011;64480;52.040;113.502;2023-05-29T09:54:29;3.03;;;1.60;;
75837;SDS011;64480;52.040;113.502;2023-05-29T10:00:43;3.17;;;1.77;;
75837;SDS011;64480;52.040;113.502;2023-05-29T10:03:48;4.15;;;2.03;;
75837;SDS011;64480;52.040;113.502;2023-05-29T10:06:54;7.75;;;2.00;;
75837;SDS011;64480;52.040;113.502;2023-05-29T10:10:04;3.30;;;1.83;;
75837;SDS011;64480;52.040;113.502;2023-05-29T10:13:13;5.85;;;2.00;;
75837;SDS011;64480;52.040;113.502;2023-05-29T10:16:20;7.20;;;2.90;;
75837;SDS011;64480;52.040;113.502;2023-05-29T10:19:27;9.60;;;6.22;;
75837;SDS011;64480;52.040;113.502;2023-05-29T10:22:33;4.45;;;1.55;;
75837;SDS011;64480;52.040;113.502;2023-05-29T10:25:41;6.93;;;1.73;;
75837;SDS011;64480;52.040;113.502;2023-05-29T10:28:54;4.95;;;2.42;;
75837;SDS011;64480;52.040;113.502;2023-05-29T10:36:09;11.88;;;3.05;;
75837;SDS011;64480;52.040;113.502;2023-05-29T10:38:50;6.60;;;2.05;;
75837;SDS011;64480;52.040;113.502;2023-05-29T10:41:54;7.57;;;2.10;;
75837;SDS011;64480;52.040;113.502;2023-05-29T10:45:10;8.00;;;2.00;;
75837;SDS011;64480;52.040;113.502;2023-05-29T10:48:42;4.47;;;2.10;;
75837;SDS011;64480;52.040;113.502;2023-05-29T10:51:46;5.03;;;2.00;;
75837;SDS011;64480;52.040;113.502;2023-05-29T10:54:52;10.65;;;2.00;;
75837;SDS011;64480;52.040;113.502;2023-05-29T10:57:58;19.50;;;11.88;;
75837;SDS011;64480;52.040;113.502;2023-05-29T11:01:10;10.20;;;2.67;;
75837;SDS011;64480;52.040;113.502;2023-05-29T11:07:33;6.70;;;2.70;;
75837;SDS011;64480;52.040;113.502;2023-05-29T11:10:58;9.38;;;2.78;;
75837;SDS011;64480;52.040;113.502;2023-05-29T11:17:32;10.38;;;3.03;;
75837;SDS011;64480;52.040;113.502;2023-05-29T11:20:50;9.07;;;3.13;;
75837;SDS011;64480;52.040;113.502;2023-05-29T11:24:00;7.97;;;3.28;;
75837;SDS011;64480;52.040;113.502;2023-05-29T11:27:14;20.02;;;6.90;;
75837;SDS011;64480;52.040;113.502;2023-05-29T11:30:19;9.60;;;2.50;;
75837;SDS011;64480;52.040;113.502;2023-05-29T11:33:27;10.48;;;2.40;;
75837;SDS011;64480;52.040;113.502;2023-05-29T11:36:31;4.10;;;2.58;;
75837;SDS011;64480;52.040;113.502;2023-05-29T11:39:37;4.97;;;2.15;;
75837;SDS011;64480;52.040;113.502;2023-05-29T11:42:42;8.85;;;2.72;;
75837;SDS011;64480;52.040;113.502;2023-05-29T11:45:47;9.18;;;3.10;;
75837;SDS011;64480;52.040;113.502;2023-05-29T11:48:50;13.05;;;3.33;;
75837;SDS011;64480;52.040;113.502;2023-05-29T11:52:04;8.43;;;3.90;;
75837;SDS011;64480;52.040;113.502;2023-05-29T11:55:20;14.65;;;3.70;;
75837;SDS011;64480;52.040;113.502;2023-05-29T11:58:24;8.48;;;3.28;;
75837;SDS011;64480;52.040;113.502;2023-05-29T12:01:34;12.70;;;2.97;;
75837;SDS011;64480;52.040;113.502;2023-05-29T12:04:38;8.90;;;3.17;;
75837;SDS011;64480;52.040;113.502;2023-05-29T12:11:17;6.22;;;3.20;;
75837;SDS011;64480;52.040;113.502;2023-05-29T12:17:59;17.50;;;3.95;;
75837;SDS011;64480;52.040;113.502;2023-05-29T12:21:03;14.63;;;6.03;;
75837;SDS011;64480;52.040;113.502;2023-05-29T12:27:15;9.23;;;4.35;;
75837;SDS011;64480;52.040;113.502;2023-05-29T12:30:22;18.35;;;5.38;;
75837;SDS011;64480;52.040;113.502;2023-05-29T12:33:30;9.55;;;4.30;;
75837;SDS011;64480;52.040;113.502;2023-05-29T12:40:18;13.15;;;5.90;;
75837;SDS011;64480;52.040;113.502;2023-05-29T12:43:27;12.15;;;6.05;;
75837;SDS011;64480;52.040;113.502;2023-05-29T12:46:43;15.38;;;5.90;;
75837;SDS011;64480;52.040;113.502;2023-05-29T12:53:42;10.55;;;5.07;;
75837;SDS011;64480;52.040;113.502;2023-05-29T12:56:47;28.75;;;8.60;;
75837;SDS011;64480;52.040;113.502;2023-05-29T12:59:55;26.90;;;9.57;;
75837;SDS011;64480;52.040;113.502;2023-05-29T13:02:59;20.52;;;5.97;;
75837;SDS011;64480;52.040;113.502;2023-05-29T13:06:04;13.63;;;4.82;;
75837;SDS011;64480;52.040;113.502;2023-05-29T13:09:08;14.82;;;3.80;;
75837;SDS011;64480;52.040;113.502;2023-05-29T13:15:22;8.77;;;3.10;;
75837;SDS011;64480;52.040;113.502;2023-05-29T13:18:26;8.93;;;3.42;;
75837;SDS011;64480;52.040;113.502;2023-05-29T13:21:31;9.45;;;2.97;;
75837;SDS011;64480;52.040;113.502;2023-05-29T13:24:36;11.57;;;2.75;;
75837;SDS011;64480;52.040;113.502;2023-05-29T13:27:44;16.77;;;3.20;;
75837;SDS011;64480;52.040;113.502;2023-05-29T13:30:58;13.82;;;2.95;;
75837;SDS011;64480;52.040;113.502;2023-05-29T13:34:05;7.32;;;2.80;;
75837;SDS011;64480;52.040;113.502;2023-05-29T13:37:12;14.50;;;3.00;;
75837;SDS011;64480;52.040;113.502;2023-05-29T13:40:24;8.82;;;2.90;;
75837;SDS011;64480;52.040;113.502;2023-05-29T13:43:29;10.25;;;3.08;;
75837;SDS011;64480;52.040;113.502;2023-05-29T13:50:34;8.48;;;3.13;;
75837;SDS011;64480;52.040;113.502;2023-05-29T13:58:00;9.10;;;3.60;;
75837;SDS011;64480;52.040;113.502;2023-05-29T14:01:17;13.13;;;3.42;;
75837;SDS011;64480;52.040;113.502;2023-05-29T14:04:36;8.13;;;3.20;;
75837;SDS011;64480;52.040;113.502;2023-05-29T14:11:42;9.88;;;3.40;;
75837;SDS011;64480;52.040;113.502;2023-05-29T14:14:49;13.73;;;3.20;;
75837;SDS011;64480;52.040;113.502;2023-05-29T14:18:05;9.63;;;3.10;;
75837;SDS011;64480;52.040;113.502;2023-05-29T14:21:21;12.48;;;3.45;;
75837;SDS011;64480;52.040;113.502;2023-05-29T14:24:31;12.50;;;3.28;;
75837;SDS011;64480;52.040;113.502;2023-05-29T14:27:37;10.32;;;3.20;;
75837;SDS011;64480;52.040;113.502;2023-05-29T14:30:45;17.92;;;3.42;;
75837;SDS011;64480;52.040;113.502;2023-05-29T14:33:52;8.45;;;2.88;;
75837;SDS011;64480;52.040;113.502;2023-05-29T14:36:56;11.10;;;3.08;;
75837;SDS011;64480;52.040;113.502;2023-05-29T14:44:09;17.05;;;3.70;;
75837;SDS011;64480;52.040;113.502;2023-05-29T14:47:22;14.20;;;4.90;;
75837;SDS011;64480;52.040;113.502;2023-05-29T14:50:31;13.75;;;3.55;;
75837;SDS011;64480;52.040;113.502;2023-05-29T14:53:48;13.43;;;3.67;;
75837;SDS011;64480;52.040;113.502;2023-05-29T14:57:14;14.25;;;3.88;;
75837;SDS011;64480;52.040;113.502;2023-05-29T15:00:57;15.70;;;4.57;;
75837;SDS011;64480;52.040;113.502;2023-05-29T15:04:24;18.05;;;4.05;;
75837;SDS011;64480;52.040;113.502;2023-05-29T15:07:34;11.13;;;3.55;;
75837;SDS011;64480;52.040;113.502;2023-05-29T15:11:01;23.05;;;4.65;;
75837;SDS011;64480;52.040;113.502;2023-05-29T15:14:14;10.73;;;3.90;;
75837;SDS011;64480;52.040;113.502;2023-05-29T15:17:25;14.35;;;4.50;;
75837;SDS011;64480;52.040;113.502;2023-05-29T15:20:38;11.52;;;4.25;;
75837;SDS011;64480;52.040;113.502;2023-05-29T15:24:04;14.82;;;4.43;;
75837;SDS011;64480;52.040;113.502;2023-05-29T15:27:10;14.40;;;4.40;;
75837;SDS011;64480;52.040;113.502;2023-05-29T15:30:21;11.95;;;4.47;;
75837;SDS011;64480;52.040;113.502;2023-05-29T15:33:25;13.73;;;4.15;;
75837;SDS011;64480;52.040;113.502;2023-05-29T15:36:34;12.20;;;4.10;;
75837;SDS011;64480;52.040;113.502;2023-05-29T15:39:41;14.27;;;4.95;;
75837;SDS011;64480;52.040;113.502;2023-05-29T15:42:48;16.63;;;6.05;;
75837;SDS011;64480;52.040;113.502;2023-05-29T15:49:20;18.10;;;7.38;;
75837;SDS011;64480;52.040;113.502;2023-05-29T15:52:24;25.33;;;6.97;;
75837;SDS011;64480;52.040;113.502;2023-05-29T15:55:44;17.77;;;7.15;;
75837;SDS011;64480;52.040;113.502;2023-05-29T15:58:50;23.27;;;8.40;;
75837;SDS011;64480;52.040;113.502;2023-05-29T16:01:58;17.83;;;8.52;;
75837;SDS011;64480;52.040;113.502;2023-05-29T16:05:03;28.90;;;8.73;;
75837;SDS011;64480;52.040;113.502;2023-05-29T16:08:09;15.27;;;7.40;;
75837;SDS011;64480;52.040;113.502;2023-05-29T16:11:13;18.65;;;6.60;;
75837;SDS011;64480;52.040;113.502;2023-05-29T16:14:20;18.65;;;6.68;;
75837;SDS011;64480;52.040;113.502;2023-05-29T16:17:35;14.45;;;5.85;;
75837;SDS011;64480;52.040;113.502;2023-05-29T16:20:41;15.88;;;7.00;;
75837;SDS011;64480;52.040;113.502;2023-05-29T16:23:51;19.92;;;7.30;;
75837;SDS011;64480;52.040;113.502;2023-05-29T16:30:33;18.65;;;6.82;;
75837;SDS011;64480;52.040;113.502;2023-05-29T16:33:37;15.10;;;6.68;;
75837;SDS011;64480;52.040;113.502;2023-05-29T16:36:48;18.20;;;7.28;;
75837;SDS011;64480;52.040;113.502;2023-05-29T16:40:04;16.70;;;6.55;;
75837;SDS011;64480;52.040;113.502;2023-05-29T16:43:18;17.75;;;7.03;;
75837;SDS011;64480;52.040;113.502;2023-05-29T16:46:32;21.65;;;7.07;;
75837;SDS011;64480;52.040;113.502;2023-05-29T16:49:57;14.68;;;6.32;;
75837;SDS011;64480;52.040;113.502;2023-05-29T16:53:28;16.02;;;6.45;;
75837;SDS011;64480;52.040;113.502;2023-05-29T16:56:38;20.20;;;7.13;;
75837;SDS011;64480;52.040;113.502;2023-05-29T16:59:44;17.70;;;7.07;;
75837;SDS011;64480;52.040;113.502;2023-05-29T17:06:49;18.77;;;7.05;;
75837;SDS011;64480;52.040;113.502;2023-05-29T17:10:37;21.60;;;8.18;;
75837;SDS011;64480;52.040;113.502;2023-05-29T17:17:49;17.02;;;6.55;;
75837;SDS011;64480;52.040;113.502;2023-05-29T17:21:43;18.35;;;6.90;;
75837;SDS011;64480;52.040;113.502;2023-05-29T17:26:19;16.98;;;6.53;;
75837;SDS011;64480;52.040;113.502;2023-05-29T17:30:08;15.82;;;6.80;;
75837;SDS011;64480;52.040;113.502;2023-05-29T17:52:39;12.50;;;5.50;;
75837;SDS011;64480;52.040;113.502;2023-05-29T17:56:13;17.92;;;5.90;;
75837;SDS011;64480;52.040;113.502;2023-05-29T17:59:21;14.98;;;6.20;;
75837;SDS011;64480;52.040;113.502;2023-05-29T18:02:47;10.75;;;5.25;;
75837;SDS011;64480;52.040;113.502;2023-05-29T18:05:57;15.27;;;6.22;;
75837;SDS011;64480;52.040;113.502;2023-05-29T18:20:35;9.23;;;4.15;;
75837;SDS011;64480;52.040;113.502;2023-05-29T18:24:46;14.60;;;4.47;;
75837;SDS011;64480;52.040;113.502;2023-05-29T18:27:55;15.60;;;4.32;;
75837;SDS011;64480;52.040;113.502;2023-05-29T18:31:17;8.93;;;3.58;;
75837;SDS011;64480;52.040;113.502;2023-05-29T18:34:23;10.18;;;3.72;;
75837;SDS011;64480;52.040;113.502;2023-05-29T18:37:26;7.93;;;3.85;;
75837;SDS011;64480;52.040;113.502;2023-05-29T18:40:31;11.05;;;4.63;;
75837;SDS011;64480;52.040;113.502;2023-05-29T18:43:35;8.88;;;5.10;;
75837;SDS011;64480;52.040;113.502;2023-05-29T18:46:39;12.35;;;5.35;;
75837;SDS011;64480;52.040;113.502;2023-05-29T18:49:43;11.15;;;5.57;;
75837;SDS011;64480;52.040;113.502;2023-05-29T18:52:53;14.25;;;5.43;;
75837;SDS011;64480;52.040;113.502;2023-05-29T18:55:56;10.50;;;5.07;;
75837;SDS011;64480;52.040;113.502;2023-05-29T18:59:01;9.43;;;4.72;;
75837;SDS011;64480;52.040;113.502;2023-05-29T19:02:05;17.83;;;5.00;;
75837;SDS011;64480;52.040;113.502;2023-05-29T19:05:24;8.52;;;4.13;;
75837;SDS011;64480;52.040;113.502;2023-05-29T19:08:31;8.40;;;4.18;;
75837;SDS011;64480;52.040;113.502;2023-05-29T19:11:38;15.27;;;4.55;;
75837;SDS011;64480;52.040;113.502;2023-05-29T19:14:41;9.10;;;3.97;;
75837;SDS011;64480;52.040;113.502;2023-05-29T19:17:45;10.18;;;3.95;;
75837;SDS011;64480;52.040;113.502;2023-05-29T19:20:49;8.02;;;3.45;;
75837;SDS011;64480;52.040;113.502;2023-05-29T19:23:53;8.27;;;3.33;;
75837;SDS011;64480;52.040;113.502;2023-05-29T19:31:08;7.78;;;4.05;;
75837;SDS011;64480;52.040;113.502;2023-05-29T19:34:30;10.20;;;4.00;;
75837;SDS011;64480;52.040;113.502;2023-05-29T19:37:35;15.32;;;4.20;;
75837;SDS011;64480;52.040;113.502;2023-05-29T19:40:41;13.55;;;4.00;;
75837;SDS011;64480;52.040;113.502;2023-05-29T19:43:46;9.10;;;4.18;;
75837;SDS011;64480;52.040;113.502;2023-05-29T19:51:21;12.20;;;3.72;;
75837;SDS011;64480;52.040;113.502;2023-05-29T19:54:25;11.18;;;4.50;;
75837;SDS011;64480;52.040;113.502;2023-05-29T19:57:33;10.07;;;4.00;;
75837;SDS011;64480;52.040;113.502;2023-05-29T20:00:36;11.07;;;4.25;;
75837;SDS011;64480;52.040;113.502;2023-05-29T20:03:40;8.82;;;4.38;;
75837;SDS011;64480;52.040;113.502;2023-05-29T20:06:46;10.70;;;3.60;;
75837;SDS011;64480;52.040;113.502;2023-05-29T20:09:50;10.82;;;4.10;;
75837;SDS011;64480;52.040;113.502;2023-05-29T20:12:54;12.18;;;3.70;;
75837;SDS011;64480;52.040;113.502;2023-05-29T20:15:58;8.38;;;4.00;;
75837;SDS011;64480;52.040;113.502;2023-05-29T20:19:01;9.77;;;3.92;;
75837;SDS011;64480;52.040;113.502;2023-05-29T20:22:05;9.02;;;4.07;;
75837;SDS011;64480;52.040;113.502;2023-05-29T20:25:12;8.07;;;3.80;;
75837;SDS011;64480;52.040;113.502;2023-05-29T20:28:16;20.23;;;4.07;;
75837;SDS011;64480;52.040;113.502;2023-05-29T20:31:20;7.72;;;3.58;;
75837;SDS011;64480;52.040;113.502;2023-05-29T20:34:28;8.07;;;3.58;;
75837;SDS011;64480;52.040;113.502;2023-05-29T20:37:32;8.02;;;3.78;;
75837;SDS011;64480;52.040;113.502;2023-05-29T20:40:36;7.55;;;4.00;;
75837;SDS011;64480;52.040;113.502;2023-05-29T20:43:40;13.48;;;4.22;;
75837;SDS011;64480;52.040;113.502;2023-05-29T20:46:44;9.85;;;4.30;;
75837;SDS011;64480;52.040;113.502;2023-05-29T20:49:52;6.30;;;2.97;;
75837;SDS011;64480;52.040;113.502;2023-05-29T20:52:58;12.05;;;3.72;;
75837;SDS011;64480;52.040;113.502;2023-05-29T20:56:01;7.10;;;3.65;;
75837;SDS011;64480;52.040;113.502;2023-05-29T20:59:05;10.95;;;3.85;;
75837;SDS011;64480;52.040;113.502;2023-05-29T21:02:09;13.73;;;4.07;;
75837;SDS011;64480;52.040;113.502;2023-05-29T21:05:21;7.03;;;3.58;;
75837;SDS011;64480;52.040;113.502;2023-05-29T21:08:26;8.00;;;4.07;;
75837;SDS011;64480;52.040;113.502;2023-05-29T21:11:32;13.65;;;4.72;;
75837;SDS011;64480;52.040;113.502;2023-05-29T21:14:46;12.10;;;4.22;;
75837;SDS011;64480;52.040;113.502;2023-05-29T21:27:51;13.73;;;4.50;;
75837;SDS011;64480;52.040;113.502;2023-05-29T21:31:45;11.52;;;4.25;;
75837;SDS011;64480;52.040;113.502;2023-05-29T21:39:58;15.77;;;4.70;;
75837;SDS011;64480;52.040;113.502;2023-05-29T21:48:49;12.07;;;4.53;;
75837;SDS011;64480;52.040;113.502;2023-05-29T21:51:59;12.50;;;4.28;;
75837;SDS011;64480;52.040;113.502;2023-05-29T21:59:45;21.48;;;9.82;;
75837;SDS011;64480;52.040;113.502;2023-05-29T22:25:52;36.65;;;10.20;;
75837;SDS011;64480;52.040;113.502;2023-05-29T22:34:00;30.55;;;9.10;;
75837;SDS011;64480;52.040;113.502;2023-05-29T22:40:49;27.02;;;7.68;;
75837;SDS011;64480;52.040;113.502;2023-05-29T22:48:20;29.02;;;8.13;;
75837;SDS011;64480;52.040;113.502;2023-05-29T22:55:56;26.25;;;7.93;;
75837;SDS011;64480;52.040;113.502;2023-05-29T22:59:03;15.30;;;7.53;;
75837;SDS011;64480;52.040;113.502;2023-05-29T23:05:57;24.10;;;7.25;;
75837;SDS011;64480;52.040;113.502;2023-05-29T23:09:43;29.92;;;9.13;;
75837;SDS011;64480;52.040;113.502;2023-05-29T23:23:28;40.90;;;10.60;;
75837;SDS011;64480;52.040;113.502;2023-05-29T23:30:39;40.80;;;10.20;;
75837;SDS011;64480;52.040;113.502;2023-05-29T23:33:44;36.85;;;11.52;;
75837;SDS011;64480;52.040;113.502;2023-05-29T23:36:54;49.95;;;13.88;;
75837;SDS011;64480;52.040;113.502;2023-05-29T23:40:01;33.45;;;11.88;;
